Time;durP1;ratioP1;P1;durP2;ratioP2;P2;SDS_P1;SDS_P2;PMS_P1;PMS_P2;Temp;Humidity;BMP_temperature;BMP_pressure;BME280_temperature;BME280_humidity;BME280_pressure;Samples;Min_cycle;Max_cycle;Signal;HPM_P1;HPM_P2
2021/10/07 00:01:45;;;;;;;;;13.00;9.00;;;;;13.02;68.11;102331.88;4955699;28;46271;-77
2021/10/07 00:04:10;;;;;;;;;16.33;8.00;;;;;13.01;67.72;102338.03;4954807;28;56222;-77
2021/10/07 00:06:35;;;;;;;;;10.33;8.33;;;;;13.00;68.39;102338.91;4955627;28;52172;-80
2021/10/07 00:09:04;;;;;;;;;11.67;6.00;;;;;12.99;68.12;102330.91;4955567;28;45335;-77
2021/10/07 00:11:29;;;;;;;;;14.00;9.00;;;;;12.96;68.18;102337.03;4956282;28;45414;-77
2021/10/07 00:13:55;;;;;;;;;12.33;8.33;;;;;12.96;68.44;102344.97;4953895;28;46145;-77
2021/10/07 00:16:20;;;;;;;;;6.67;4.00;;;;;12.92;68.39;102351.06;4954933;28;54970;-77
2021/10/07 00:18:48;;;;;;;;;14.33;6.33;;;;;12.92;68.36;102351.06;4954399;28;45751;-80
2021/10/07 00:21:17;;;;;;;;;9.33;5.33;;;;;12.90;68.35;102349.25;4956430;28;45533;-77
2021/10/07 00:23:54;;;;;;;;;10.67;6.67;;;;;12.90;68.40;102349.25;4947173;28;45767;-76
2021/10/07 00:26:20;;;;;;;;;11.67;9.00;;;;;12.87;68.54;102347.38;4955782;28;45537;-80
2021/10/07 00:28:45;;;;;;;;;8.00;5.67;;;;;12.86;68.33;102348.25;4956521;28;45398;-77
2021/10/07 00:31:17;;;;;;;;;10.67;5.00;;;;;12.83;68.48;102351.69;4931186;28;45537;-79
2021/10/07 00:39:04;;;;;;;;;8.33;8.00;;;;;12.80;68.54;102353.41;4954159;28;45192;-77
2021/10/07 00:41:33;;;;;;;;;9.67;8.00;;;;;12.76;68.49;102355.06;4956175;28;45529;-78
2021/10/07 00:44:06;;;;;;;;;7.67;5.00;;;;;12.76;68.48;102355.06;4952102;28;45773;-77
2021/10/07 00:46:32;;;;;;;;;10.00;8.00;;;;;12.75;68.51;102360.34;4951130;28;45517;-78
2021/10/07 00:48:59;;;;;;;;;6.33;5.00;;;;;12.72;68.61;102349.63;4955097;28;45408;-79
2021/10/07 00:51:26;;;;;;;;;11.33;6.67;;;;;12.72;68.47;102353.19;4954920;28;45169;-77
2021/10/07 00:53:51;;;;;;;;;10.33;7.33;;;;;12.69;68.59;102354.88;4953074;28;46596;-76
2021/10/07 00:56:19;;;;;;;;;11.33;5.00;;;;;12.70;68.62;102360.22;4957786;28;45523;-81
2021/10/07 00:58:45;;;;;;;;;9.33;6.33;;;;;12.65;68.55;102353.88;4953920;28;45372;-78
2021/10/07 01:01:10;;;;;;;;;8.00;5.00;;;;;12.67;68.58;102357.47;4938906;28;45456;-78
2021/10/07 01:03:36;;;;;;;;;6.00;4.67;;;;;12.66;68.64;102352.13;4955096;28;45458;-77
2021/10/07 01:06:01;;;;;;;;;5.00;4.67;;;;;12.65;68.79;102355.63;4955503;28;45286;-77
2021/10/07 01:08:27;;;;;;;;;8.00;4.33;;;;;12.63;68.60;102352.06;4949788;28;45890;-77
2021/10/07 01:10:52;;;;;;;;;5.33;4.00;;;;;12.62;68.61;102359.09;4951181;28;45345;-77
2021/10/07 01:13:18;;;;;;;;;9.33;7.33;;;;;12.61;68.86;102357.31;4953911;28;58207;-81
2021/10/07 01:15:44;;;;;;;;;6.33;6.33;;;;;12.59;68.75;102359.91;4954099;28;45485;-77
2021/10/07 01:18:09;;;;;;;;;5.33;5.33;;;;;12.55;68.80;102343.88;4954982;28;45329;-77
2021/10/07 01:20:37;;;;;;;;;4.67;4.67;;;;;12.55;68.90;102355.38;4962675;28;45535;-77
2021/10/07 01:23:02;;;;;;;;;7.67;4.33;;;;;12.53;68.75;102342.97;4954352;28;45747;-79
2021/10/07 01:25:31;;;;;;;;;6.00;4.00;;;;;12.53;68.77;102354.47;4976215;28;45378;-78
2021/10/07 01:27:57;;;;;;;;;8.00;4.00;;;;;12.52;68.92;102352.66;5024076;28;45787;-82
2021/10/07 01:30:22;;;;;;;;;7.33;4.33;;;;;12.52;68.93;102352.66;4948948;28;47112;-79
2021/10/07 01:32:48;;;;;;;;;6.33;5.00;;;;;12.50;69.05;102346.41;4952004;28;45655;-79
2021/10/07 01:35:13;;;;;;;;;10.00;7.67;;;;;12.50;69.00;102361.41;4944599;28;53152;-76
2021/10/07 01:37:39;;;;;;;;;6.33;6.33;;;;;12.50;68.90;102348.16;4952046;28;47489;-78
2021/10/07 01:40:05;;;;;;;;;7.00;5.67;;;;;12.49;68.98;102355.22;4950620;28;49317;-80
2021/10/07 01:42:30;;;;;;;;;9.00;4.00;;;;;12.46;68.96;102352.47;4964089;28;47087;-80
2021/10/07 01:44:55;;;;;;;;;8.67;5.00;;;;;12.45;68.93;102349.78;4954849;28;53628;-77
2021/10/07 01:47:21;;;;;;;;;6.33;6.33;;;;;12.44;69.10;102358.59;4953144;28;45525;-77
2021/10/07 01:49:46;;;;;;;;;4.00;4.00;;;;;12.39;68.93;102342.56;4954358;28;49286;-76
2021/10/07 01:52:12;;;;;;;;;8.00;6.33;;;;;12.39;69.22;102350.53;4953068;28;45507;-77
2021/10/07 01:54:37;;;;;;;;;8.67;5.67;;;;;12.39;68.99;102347.88;4949274;28;53078;-77
2021/10/07 01:57:03;;;;;;;;;7.00;5.00;;;;;12.37;69.18;102352.25;4952086;28;45494;-77
2021/10/07 01:59:28;;;;;;;;;6.33;4.67;;;;;12.32;69.00;102343.25;4951653;28;45582;-78
2021/10/07 02:01:54;;;;;;;;;5.00;5.00;;;;;12.34;69.21;102349.50;4944784;28;53326;-78
2021/10/07 02:04:19;;;;;;;;;3.67;3.00;;;;;12.35;69.28;102353.03;4945819;28;45546;-78
2021/10/07 02:06:45;;;;;;;;;7.00;5.33;;;;;12.33;69.26;102353.00;4952092;28;46032;-77
2021/10/07 02:09:10;;;;;;;;;8.00;4.67;;;;;12.32;69.28;102354.75;4950538;28;45366;-77
2021/10/07 02:11:36;;;;;;;;;5.00;4.33;;;;;12.31;69.45;102354.72;4950852;28;57894;-77
2021/10/07 02:14:01;;;;;;;;;12.00;5.00;;;;;12.32;69.59;102349.47;4948043;28;45347;-78
2021/10/07 02:16:28;;;;;;;;;8.00;4.00;;;;;12.31;69.45;102347.66;4948671;28;45505;-78
2021/10/07 02:18:53;;;;;;;;;5.67;4.00;;;;;12.31;69.55;102342.38;4953323;28;45375;-77
2021/10/07 02:21:19;;;;;;;;;6.33;4.00;;;;;12.31;69.51;102342.38;4954008;28;55659;-81
2021/10/07 02:23:44;;;;;;;;;6.00;4.00;;;;;12.30;69.55;102340.59;4952204;28;45967;-77
2021/10/07 02:26:10;;;;;;;;;9.67;4.67;;;;;12.30;69.42;102337.00;4954496;28;50695;-76
2021/10/07 02:28:35;;;;;;;;;8.00;5.67;;;;;12.28;69.41;102339.63;4950192;28;45469;-77
2021/10/07 02:31:00;;;;;;;;;7.67;4.33;;;;;12.28;69.41;102339.63;4952315;28;46279;-81
2021/10/07 02:33:26;;;;;;;;;7.00;4.00;;;;;12.25;69.51;102335.97;4954350;28;45706;-77
2021/10/07 02:35:51;;;;;;;;;8.67;3.33;;;;;12.25;69.54;102344.84;4954741;28;45559;-79
2021/10/07 02:38:16;;;;;;;;;6.67;5.67;;;;;12.24;69.48;102345.69;4945386;28;45440;-77
2021/10/07 02:40:42;;;;;;;;;3.00;3.00;;;;;12.23;69.31;102337.69;4944726;28;53197;-76
2021/10/07 02:43:07;;;;;;;;;6.00;4.67;;;;;12.19;69.29;102339.34;4948605;28;53926;-77
2021/10/07 02:45:33;;;;;;;;;5.00;5.00;;;;;12.22;69.42;102343.84;4948166;28;45279;-77
2021/10/07 02:47:58;;;;;;;;;8.67;4.00;;;;;12.20;69.47;102353.53;4954148;28;45364;-77
2021/10/07 02:50:26;;;;;;;;;6.33;3.00;;;;;12.15;69.51;102336.59;4951149;28;50829;-79
2021/10/07 02:52:52;;;;;;;;;5.67;5.67;;;;;12.18;69.55;102349.91;4953241;28;45386;-78
2021/10/07 02:55:17;;;;;;;;;6.00;4.67;;;;;12.17;69.68;102341.06;4952591;28;45484;-80
2021/10/07 02:57:45;;;;;;;;;9.33;4.00;;;;;12.17;69.82;102340.19;4947771;28;47106;-77
2021/10/07 03:00:11;;;;;;;;;8.33;3.67;;;;;12.13;69.75;102325.06;4954458;28;45786;-76
2021/10/07 03:02:36;;;;;;;;;3.00;3.00;;;;;12.19;69.97;102335.81;4967860;28;45195;-78
2021/10/07 03:05:03;;;;;;;;;2.00;2.00;;;;;12.20;70.42;102335.88;4950085;28;48202;-77
2021/10/07 03:07:28;;;;;;;;;5.33;4.00;;;;;12.18;70.36;102328.72;4950776;28;45307;-77
2021/10/07 03:09:53;;;;;;;;;5.33;4.00;;;;;12.24;70.44;102347.44;4949296;28;58352;-78
2021/10/07 03:12:19;;;;;;;;;5.67;5.00;;;;;12.25;70.87;102343.94;4947095;28;53626;-77
2021/10/07 03:14:45;;;;;;;;;4.00;4.00;;;;;12.28;70.51;102344.91;4953452;28;45315;-77
2021/10/07 03:17:11;;;;;;;;;8.67;4.00;;;;;12.26;70.84;102340.44;4953762;28;45511;-76
2021/10/07 03:19:36;;;;;;;;;9.33;3.67;;;;;12.24;70.93;102339.50;4949134;28;45489;-77
2021/10/07 03:22:02;;;;;;;;;8.00;5.00;;;;;12.33;70.83;102358.31;4953413;28;49979;-77
2021/10/07 03:24:27;;;;;;;;;8.67;5.00;;;;;12.34;70.61;102357.44;4950403;28;45328;-77
2021/10/07 03:26:53;;;;;;;;;8.33;6.67;;;;;12.36;70.49;102362.78;4953068;28;45443;-77
2021/10/07 03:29:18;;;;;;;;;7.67;4.00;;;;;12.31;70.48;102352.06;4953639;28;45559;-77
2021/10/07 03:31:44;;;;;;;;;6.67;4.00;;;;;12.32;70.82;102359.16;4949806;28;56868;-77
2021/10/07 03:34:09;;;;;;;;;7.33;5.00;;;;;12.36;70.65;102358.41;4950528;28;45252;-77
2021/10/07 03:36:34;;;;;;;;;6.33;4.00;;;;;12.38;70.80;102353.13;4948113;28;45630;-79
2021/10/07 03:39:00;;;;;;;;;5.33;4.00;;;;;12.38;70.97;102354.03;4945481;28;46442;-81
2021/10/07 03:41:25;;;;;;;;;10.33;4.00;;;;;12.37;70.68;102360.19;4949116;28;52777;-77
2021/10/07 03:43:51;;;;;;;;;3.00;3.00;;;;;12.37;70.56;102362.84;4953324;28;52090;-82
2021/10/07 03:46:17;;;;;;;;;5.00;3.00;;;;;12.33;70.61;102350.34;4950616;28;45222;-78
2021/10/07 03:48:43;;;;;;;;;5.00;5.00;;;;;12.38;70.52;102363.72;4952782;28;46319;-76
2021/10/07 03:51:09;;;;;;;;;4.33;3.00;;;;;12.35;70.61;102367.16;4951133;28;45529;-81
2021/10/07 03:53:34;;;;;;;;;7.33;4.00;;;;;12.33;70.54;102368.91;4945763;28;45399;-76
2021/10/07 03:55:59;;;;;;;;;3.00;3.00;;;;;12.32;70.62;102372.41;4947801;28;45443;-77
2021/10/07 03:58:25;;;;;;;;;2.67;2.67;;;;;12.30;70.73;102375.00;4952352;28;46499;-78
2021/10/07 04:00:50;;;;;;;;;8.67;4.00;;;;;12.29;70.35;102370.53;4950325;28;45384;-78
2021/10/07 04:03:16;;;;;;;;;4.00;4.00;;;;;12.26;70.39;102380.19;4955947;28;52617;-76
2021/10/07 04:05:41;;;;;;;;;3.00;3.00;;;;;12.24;70.62;102380.09;4955129;28;45563;-81
2021/10/07 04:08:06;;;;;;;;;5.67;4.00;;;;;12.24;70.91;102382.75;4951305;28;47116;-79
2021/10/07 04:10:32;;;;;;;;;4.33;4.33;;;;;12.23;70.91;102377.44;4946547;28;47593;-77
2021/10/07 04:12:58;;;;;;;;;7.67;4.67;;;;;12.23;70.58;102380.06;4954805;28;45288;-77
2021/10/07 04:15:23;;;;;;;;;6.33;4.00;;;;;12.21;70.80;102380.03;4954498;28;45413;-77
2021/10/07 04:17:49;;;;;;;;;8.00;4.00;;;;;12.22;70.57;102381.81;4953407;28;45187;-79
2021/10/07 04:20:14;;;;;;;;;8.00;4.67;;;;;12.20;70.65;102380.91;4956038;28;53773;-77
2021/10/07 04:22:39;;;;;;;;;7.00;4.67;;;;;12.18;70.59;102382.59;4953458;28;45277;-79
2021/10/07 04:25:05;;;;;;;;;8.00;5.00;;;;;12.17;70.75;102379.91;4955127;28;45492;-77
2021/10/07 04:27:31;;;;;;;;;9.00;6.33;;;;;12.14;70.72;102378.03;4954419;28;46372;-77
2021/10/07 04:30:04;;;;;;;;;8.00;5.67;;;;;12.15;70.72;102386.91;4953151;28;45375;-78
2021/10/07 04:32:29;;;;;;;;;8.00;5.67;;;;;12.10;70.77;102375.28;4949031;28;45773;-77
2021/10/07 04:34:55;;;;;;;;;7.00;7.00;;;;;12.13;70.94;102378.91;4945766;28;45586;-77
2021/10/07 04:37:20;;;;;;;;;8.00;8.00;;;;;12.13;70.87;102375.34;4946840;28;46469;-77
2021/10/07 04:39:45;;;;;;;;;8.33;5.67;;;;;12.13;70.76;102381.53;4953530;28;54396;-77
2021/10/07 04:42:11;;;;;;;;;9.33;7.00;;;;;12.14;70.66;102386.00;4955637;28;46811;-76
2021/10/07 04:44:36;;;;;;;;;13.00;9.00;;;;;12.13;70.80;102384.19;4955032;28;45548;-76
2021/10/07 04:47:01;;;;;;;;;10.00;7.67;;;;;12.12;70.64;102382.41;4955772;28;54756;-75
2021/10/07 04:49:27;;;;;;;;;7.00;6.67;;;;;12.13;70.90;102385.94;4955447;28;45165;-78
2021/10/07 04:51:52;;;;;;;;;11.00;6.33;;;;;12.12;70.82;102381.50;4950894;28;45375;-76
2021/10/07 04:54:18;;;;;;;;;9.67;6.67;;;;;12.04;70.58;102374.25;4947727;28;46155;-76
2021/10/07 04:56:43;;;;;;;;;11.00;8.33;;;;;12.09;70.70;102378.75;4950222;28;53912;-79
2021/10/07 04:59:08;;;;;;;;;8.67;8.67;;;;;12.01;70.78;102371.50;4952161;28;45383;-76
2021/10/07 05:01:34;;;;;;;;;9.00;9.00;;;;;12.04;70.78;102378.66;4946513;28;45465;-79
2021/10/07 05:03:59;;;;;;;;;12.33;7.33;;;;;12.02;70.57;102383.88;4953499;28;51441;-81
2021/10/07 05:06:25;;;;;;;;;9.33;8.67;;;;;12.02;70.75;102388.28;4955715;28;46458;-80
2021/10/07 05:08:50;;;;;;;;;11.00;7.00;;;;;12.03;71.17;102390.97;4954918;28;45438;-82
2021/10/07 05:11:16;;;;;;;;;10.00;7.00;;;;;12.02;71.11;102389.19;4951041;28;48837;-80
2021/10/07 05:13:41;;;;;;;;;10.33;8.00;;;;;12.04;71.31;102395.44;4952946;28;45298;-80
2021/10/07 05:16:07;;;;;;;;;11.00;8.00;;;;;12.00;71.23;102388.25;4952942;28;55330;-81
2021/10/07 05:18:32;;;;;;;;;10.00;6.00;;;;;12.06;71.12;102404.31;4953130;28;45471;-84
2021/10/07 05:20:57;;;;;;;;;7.67;7.67;;;;;12.05;71.07;102402.50;4950421;28;49670;-78
2021/10/07 05:23:23;;;;;;;;;8.67;8.67;;;;;12.04;71.39;102403.38;4950706;28;45586;-82
2021/10/07 05:25:48;;;;;;;;;12.67;8.00;;;;;12.07;71.26;102411.41;4949585;28;46535;-81
2021/10/07 05:28:14;;;;;;;;;11.00;8.33;;;;;12.08;71.20;102414.94;4953317;28;45376;-81
2021/10/07 05:30:39;;;;;;;;;12.67;9.67;;;;;12.08;71.19;102414.94;4947514;28;45356;-78
2021/10/07 05:33:05;;;;;;;;;10.33;9.33;;;;;12.08;71.27;102417.59;4953191;28;45440;-79
2021/10/07 05:35:30;;;;;;;;;10.67;9.00;;;;;12.06;71.27;102420.19;4944812;28;46025;-77
2021/10/07 05:37:56;;;;;;;;;10.67;7.67;;;;;12.06;71.13;102417.53;4951769;28;50390;-77
2021/10/07 05:40:21;;;;;;;;;11.33;11.33;;;;;12.04;71.08;102415.72;4936138;28;46184;-78
2021/10/07 05:42:46;;;;;;;;;9.00;8.00;;;;;12.00;71.15;102420.00;4954863;28;45637;-78
2021/10/07 05:45:12;;;;;;;;;8.00;8.00;;;;;12.03;71.00;102422.72;4948698;28;55907;-77
2021/10/07 05:47:39;;;;;;;;;10.67;9.00;;;;;12.04;71.15;102426.31;4948118;28;45593;-78
2021/10/07 05:50:05;;;;;;;;;10.33;10.00;;;;;12.03;71.06;102416.53;4953261;28;45566;-78
2021/10/07 05:52:31;;;;;;;;;12.00;8.00;;;;;12.02;71.05;102415.66;4951798;28;45356;-78
2021/10/07 05:54:56;;;;;;;;;9.00;9.00;;;;;12.02;71.13;102422.69;4945365;28;54014;-78
2021/10/07 05:57:22;;;;;;;;;10.33;7.33;;;;;12.01;71.28;102420.91;4944751;28;52159;-81
2021/10/07 05:59:47;;;;;;;;;9.00;8.00;;;;;12.01;71.00;102416.50;4944242;28;45467;-79
2021/10/07 06:02:12;;;;;;;;;12.00;8.00;;;;;11.99;71.05;102418.22;4949825;28;49118;-80
2021/10/07 06:04:38;;;;;;;;;8.00;7.00;;;;;12.01;71.19;102428.84;4943421;28;58232;-79
2021/10/07 06:07:03;;;;;;;;;10.00;8.33;;;;;12.00;71.12;102422.66;4947682;28;48940;-79
2021/10/07 06:09:29;;;;;;;;;10.00;8.00;;;;;11.98;70.99;102429.63;4938920;28;45498;-79
2021/10/07 06:11:54;;;;;;;;;11.33;10.00;;;;;11.99;71.33;102428.81;4946163;28;45529;-82
2021/10/07 06:14:20;;;;;;;;;14.33;9.33;;;;;12.00;71.47;102435.00;4949292;28;46301;-82
2021/10/07 06:16:46;;;;;;;;;7.33;7.33;;;;;12.02;71.42;102442.13;4943375;28;45479;-79
2021/10/07 06:19:16;;;;;;;;;8.00;8.00;;;;;12.02;71.29;102439.47;4939733;28;45472;-78
2021/10/07 06:21:41;;;;;;;;;10.33;7.00;;;;;12.02;71.44;102435.94;4940432;28;45600;-80
2021/10/07 06:24:07;;;;;;;;;8.67;6.67;;;;;12.01;71.41;102437.69;4948146;28;47509;-80
2021/10/07 06:26:32;;;;;;;;;13.00;10.00;;;;;12.07;71.39;102443.16;4946056;28;45665;-78
2021/10/07 06:28:57;;;;;;;;;10.33;10.33;;;;;12.10;71.54;102436.19;4946337;28;47308;-78
2021/10/07 06:31:23;;;;;;;;;8.67;8.00;;;;;12.12;71.42;102439.75;4946259;28;45415;-79
2021/10/07 06:33:48;;;;;;;;;9.00;7.33;;;;;12.14;71.37;102438.06;4948156;28;58751;-79
2021/10/07 06:36:14;;;;;;;;;10.00;8.00;;;;;12.16;71.55;102436.38;4949310;28;45506;-78
2021/10/07 06:38:39;;;;;;;;;11.00;9.67;;;;;12.15;71.39;102431.94;4947292;28;45833;-81
2021/10/07 06:41:04;;;;;;;;;9.33;9.00;;;;;12.16;71.45;102431.97;4945131;28;45443;-78
2021/10/07 06:43:30;;;;;;;;;12.67;9.00;;;;;12.21;71.55;102432.09;4936240;28;46207;-82
2021/10/07 06:45:55;;;;;;;;;12.67;8.00;;;;;12.16;71.34;102425.78;4943485;28;46327;-78
2021/10/07 06:48:21;;;;;;;;;10.67;6.33;;;;;12.27;71.71;102434.94;4944377;28;46393;-78
2021/10/07 06:50:46;;;;;;;;;10.00;6.33;;;;;12.33;71.73;102435.09;4948237;28;45570;-78
2021/10/07 06:53:11;;;;;;;;;10.00;8.67;;;;;12.33;71.73;102440.41;4944158;28;45662;-83
2021/10/07 06:55:37;;;;;;;;;9.67;9.67;;;;;12.40;71.26;102452.97;4948673;28;45535;-80
2021/10/07 06:58:03;;;;;;;;;8.67;8.00;;;;;12.42;71.87;102451.28;4945259;28;45707;-78
2021/10/07 07:00:28;;;;;;;;;11.00;9.00;;;;;12.45;71.65;102456.66;4948353;28;47606;-78
2021/10/07 07:02:55;;;;;;;;;10.00;8.00;;;;;12.50;71.80;102449.75;4947255;28;46623;-79
2021/10/07 07:05:21;;;;;;;;;8.67;5.00;;;;;12.54;71.86;102456.94;4937659;28;45383;-78
2021/10/07 07:07:46;;;;;;;;;13.00;10.67;;;;;12.61;71.90;102468.59;4948745;28;45275;-80
2021/10/07 07:10:17;;;;;;;;;12.33;9.00;;;;;12.67;72.04;102459.91;4946532;28;45540;-81
2021/10/07 07:12:47;;;;;;;;;11.67;11.00;;;;;12.71;71.79;102465.34;4942600;28;46033;-78
2021/10/07 07:15:12;;;;;;;;;13.00;10.00;;;;;12.77;72.09;102468.19;4939489;28;45599;-78
2021/10/07 07:17:38;;;;;;;;;13.67;12.00;;;;;12.83;72.01;102470.09;4941922;28;47137;-78
2021/10/07 07:20:04;;;;;;;;;14.33;10.00;;;;;12.97;71.65;102478.44;4941279;28;45412;-77
2021/10/07 07:22:29;;;;;;;;;17.67;12.33;;;;;13.05;71.53;102467.22;4946257;28;46319;-79
2021/10/07 07:24:55;;;;;;;;;19.33;13.00;;;;;13.15;71.60;102465.66;4947333;28;45457;-78
2021/10/07 07:27:21;;;;;;;;;17.33;12.67;;;;;13.24;71.42;102458.00;4943875;28;46548;-77
2021/10/07 07:32:12;;;;;;;;;17.00;12.67;;;;;13.43;71.06;102464.69;5048965;23;74471;-83
2021/10/07 07:34:37;;;;;;;;;18.33;16.33;;;;;13.49;71.01;102464.84;4930389;28;54245;-84
2021/10/07 07:37:03;;;;;;;;;20.67;18.00;;;;;13.56;70.90;102466.78;4927570;28;46995;-82
2021/10/07 07:39:28;;;;;;;;;22.67;18.67;;;;;13.56;70.78;102460.56;4936877;28;45803;-78
2021/10/07 07:41:53;;;;;;;;;25.00;19.67;;;;;13.66;70.75;102467.00;4916634;28;46228;-78
2021/10/07 07:44:19;;;;;;;;;20.00;19.00;;;;;13.70;70.56;102467.13;4940635;28;45403;-78
2021/10/07 07:46:44;;;;;;;;;23.33;20.00;;;;;13.77;70.53;102473.47;4933047;28;48794;-79
2021/10/07 07:49:09;;;;;;;;;39.25;33.25;;;;;13.82;70.35;102464.75;4934929;28;45459;-81
2021/10/07 07:51:35;;;;;;;;;26.00;21.33;;;;;13.88;70.25;102466.66;4935166;28;58058;-77
2021/10/07 07:54:00;;;;;;;;;16.00;15.00;;;;;13.98;70.66;102466.03;4936894;28;45281;-78
2021/10/07 07:56:26;;;;;;;;;16.67;13.67;;;;;14.04;70.07;102462.59;4930997;28;45540;-82
2021/10/07 07:58:53;;;;;;;;;16.00;12.67;;;;;14.15;69.98;102469.06;4939101;28;47347;-77
2021/10/07 08:01:19;;;;;;;;;13.00;10.33;;;;;14.23;70.22;102483.44;4946753;28;45818;-81
2021/10/07 08:03:44;;;;;;;;;13.00;11.33;;;;;14.27;69.71;102473.75;4933131;28;45408;-78
2021/10/07 08:06:10;;;;;;;;;9.67;9.33;;;;;14.39;69.60;102474.94;4931568;28;45432;-82
2021/10/07 08:08:35;;;;;;;;;14.00;12.00;;;;;14.47;69.55;102479.50;4933755;28;50748;-78
2021/10/07 08:11:00;;;;;;;;;13.00;9.33;;;;;14.51;69.37;102474.31;4932296;28;45549;-78
2021/10/07 08:13:26;;;;;;;;;13.33;8.67;;;;;14.57;69.18;102477.09;4934345;28;45522;-78
2021/10/07 08:15:51;;;;;;;;;12.33;9.00;;;;;14.63;69.21;102471.91;4935387;28;45277;-78
2021/10/07 08:18:18;;;;;;;;;13.00;9.33;;;;;14.67;69.13;102479.09;4935821;28;45942;-80
2021/10/07 08:20:43;;;;;;;;;12.00;7.67;;;;;14.78;69.34;102484.63;4940087;28;46915;-83
2021/10/07 08:23:12;;;;;;;;;11.00;7.67;;;;;14.87;69.18;102489.25;4936317;28;45589;-78
2021/10/07 08:25:39;;;;;;;;;14.00;7.00;;;;;14.90;68.77;102479.53;4933975;28;45392;-76
2021/10/07 08:28:04;;;;;;;;;7.00;7.00;;;;;15.05;68.87;102484.25;4935953;28;45410;-79
2021/10/07 08:30:30;;;;;;;;;13.00;11.33;;;;;15.12;68.98;102491.47;4935275;28;45895;-78
2021/10/07 08:32:55;;;;;;;;;14.00;9.33;;;;;15.16;68.30;102496.00;4934028;28;51998;-82
2021/10/07 08:35:20;;;;;;;;;9.00;8.67;;;;;15.22;68.20;102499.63;4935291;28;52833;-80
2021/10/07 08:37:47;;;;;;;;;10.33;8.67;;;;;15.26;68.41;102496.19;4935339;28;45228;-80
2021/10/07 08:40:12;;;;;;;;;20.00;12.00;;;;;15.30;68.53;102498.94;4940665;28;47668;-81
2021/10/07 08:42:39;;;;;;;;;12.67;9.33;;;;;15.29;67.89;102486.50;4935854;28;45566;-78
2021/10/07 08:45:06;;;;;;;;;11.67;9.00;;;;;15.37;68.45;102494.59;4926024;28;45372;-79
2021/10/07 08:47:31;;;;;;;;;10.67;9.00;;;;;15.42;68.54;102490.25;4938822;28;45536;-78
2021/10/07 08:49:56;;;;;;;;;11.67;10.00;;;;;15.49;68.02;102492.16;4935440;28;47138;-80
2021/10/07 08:52:22;;;;;;;;;13.67;13.33;;;;;15.58;68.65;102491.41;4940055;28;51534;-78
2021/10/07 08:54:47;;;;;;;;;9.33;8.00;;;;;15.63;68.82;102488.00;4935572;28;50270;-80
2021/10/07 08:57:14;;;;;;;;;10.33;10.00;;;;;15.70;68.54;102489.88;4935013;28;45504;-78
2021/10/07 08:59:39;;;;;;;;;11.33;9.33;;;;;15.77;68.50;102490.00;4932111;28;47706;-78
2021/10/07 09:02:07;;;;;;;;;15.67;7.67;;;;;15.79;68.49;102489.16;4935955;28;46624;-77
2021/10/07 09:04:37;;;;;;;;;15.33;10.33;;;;;15.83;68.36;102493.66;4952518;28;45594;-81
2021/10/07 09:07:07;;;;;;;;;11.00;9.33;;;;;15.89;68.03;102499.06;4933523;28;45379;-82
2021/10/07 09:09:33;;;;;;;;;8.67;7.00;;;;;15.95;68.52;102495.59;4934421;28;45731;-79
2021/10/07 09:12:02;;;;;;;;;18.00;11.00;;;;;16.06;67.94;102498.44;4930561;28;45488;-79
2021/10/07 09:14:29;;;;;;;;;17.00;9.33;;;;;16.09;68.01;102494.06;4936407;28;45412;-79
2021/10/07 09:16:55;;;;;;;;;18.00;13.00;;;;;16.17;67.50;102488.81;4939327;28;45448;-81
2021/10/07 09:19:32;;;;;;;;;14.00;9.33;;;;;16.31;67.53;102497.94;4933182;28;46618;-77
2021/10/07 09:21:59;;;;;;;;;20.67;17.67;;;;;16.39;67.57;102495.34;4929250;28;45577;-78
2021/10/07 09:24:48;;;;;;;;;14.67;11.00;;;;;16.50;66.93;102501.72;4939601;28;45408;-80
2021/10/07 09:27:14;;;;;;;;;10.33;9.00;;;;;16.57;66.88;102500.94;4940098;28;45840;-79
2021/10/07 09:29:41;;;;;;;;;14.33;10.00;;;;;16.65;66.70;102498.38;4934378;28;47006;-79
2021/10/07 09:32:07;;;;;;;;;17.33;11.67;;;;;16.68;66.95;102485.09;4935238;28;45550;-82
2021/10/07 09:34:41;;;;;;;;;8.00;8.00;;;;;16.80;66.40;102490.59;4928925;28;45547;-77
2021/10/07 09:37:31;;;;;;;;;8.00;8.00;;;;;16.90;66.60;102486.25;4930846;28;45433;-78
2021/10/07 09:39:56;;;;;;;;;11.67;9.00;;;;;16.98;66.69;102482.78;4940148;28;47932;-78
2021/10/07 09:42:29;;;;;;;;;8.33;8.33;;;;;16.99;65.33;102470.31;4933387;28;45360;-76
2021/10/07 09:45:05;;;;;;;;;13.67;9.00;;;;;17.10;65.88;102483.78;4934121;28;45486;-79
2021/10/07 09:47:33;;;;;;;;;14.67;10.33;;;;;17.09;65.84;102476.66;4933952;28;45406;-77
2021/10/07 09:50:15;;;;;;;;;12.33;9.00;;;;;17.13;65.53;102479.38;4935726;28;47674;-78
2021/10/07 09:52:42;;;;;;;;;10.00;9.33;;;;;17.14;65.30;102470.50;4935098;28;45581;-78
2021/10/07 09:55:12;;;;;;;;;9.33;7.33;;;;;17.17;65.20;102477.66;4938990;28;45621;-77
2021/10/07 09:57:47;;;;;;;;;9.33;9.00;;;;;17.09;65.59;102472.22;4935037;28;45532;-78
2021/10/07 10:00:13;;;;;;;;;12.00;8.00;;;;;17.12;65.58;102476.72;4931668;28;46872;-77
2021/10/07 10:02:40;;;;;;;;;8.33;6.00;;;;;17.16;65.46;102482.09;4938674;28;45546;-78
2021/10/07 10:05:06;;;;;;;;;8.00;6.00;;;;;17.19;65.81;102474.09;4934356;28;45438;-78
2021/10/07 10:07:32;;;;;;;;;9.67;8.00;;;;;17.22;65.35;102466.13;4934358;28;45458;-78
2021/10/07 10:09:57;;;;;;;;;12.00;6.00;;;;;17.24;65.24;102474.16;4933897;28;46721;-78
2021/10/07 10:12:23;;;;;;;;;8.00;7.00;;;;;17.24;65.22;102461.69;4939294;28;49892;-77
2021/10/07 10:14:52;;;;;;;;;14.67;8.00;;;;;17.31;65.42;102469.75;4915069;28;45964;-77
2021/10/07 10:17:17;;;;;;;;;11.33;9.00;;;;;17.33;65.33;102458.22;4925842;28;46082;-77
2021/10/07 10:19:43;;;;;;;;;28.33;23.33;;;;;17.38;65.38;102463.63;4914806;28;54074;-78
2021/10/07 10:22:08;;;;;;;;;7.67;5.00;;;;;17.41;65.12;102466.28;4924335;28;46591;-77
2021/10/07 10:24:34;;;;;;;;;7.33;5.00;;;;;17.46;65.06;102467.22;4930140;28;53145;-77
2021/10/07 10:27:03;;;;;;;;;9.00;7.00;;;;;17.52;64.99;102467.28;4933114;28;47069;-79
2021/10/07 10:29:33;;;;;;;;;7.67;5.00;;;;;17.59;64.87;102462.91;4930202;28;45991;-77
2021/10/07 10:31:58;;;;;;;;;10.00;8.00;;;;;17.68;64.59;102463.84;4936401;28;46384;-78
2021/10/07 10:34:23;;;;;;;;;11.00;8.00;;;;;17.80;64.70;102468.44;4932446;28;45506;-77
2021/10/07 10:36:53;;;;;;;;;8.33;7.00;;;;;17.88;64.38;102466.72;4932101;28;45647;-78
2021/10/07 10:39:19;;;;;;;;;2.00;2.00;;;;;17.97;64.24;102469.44;4932622;28;46809;-80
2021/10/07 10:41:46;;;;;;;;;4.00;4.00;;;;;18.02;64.21;102466.81;4932402;28;45498;-78
2021/10/07 10:44:26;;;;;;;;;3.00;3.00;;;;;18.10;63.82;102466.84;4933438;28;45376;-77
2021/10/07 10:46:59;;;;;;;;;6.67;4.00;;;;;18.13;64.00;102466.88;4931433;28;45396;-80
2021/10/07 10:49:38;;;;;;;;;5.00;3.67;;;;;18.09;63.49;102463.28;4934117;28;47051;-77
2021/10/07 10:52:13;;;;;;;;;4.00;2.33;;;;;18.14;63.67;102458.84;4932468;28;45578;-78
2021/10/07 10:54:46;;;;;;;;;3.33;3.33;;;;;18.24;63.38;102459.81;4933739;28;45537;-78
2021/10/07 10:57:38;;;;;;;;;8.00;3.67;;;;;18.35;63.33;102462.53;4928073;28;45194;-78
2021/10/07 11:00:12;;;;;;;;;2.33;2.00;;;;;18.44;62.57;102460.81;4929662;28;47801;-78
2021/10/07 11:02:38;;;;;;;;;4.67;3.00;;;;;18.54;62.41;102451.94;4931453;28;45387;-78
2021/10/07 11:05:34;;;;;;;;;5.33;3.00;;;;;18.69;62.33;102458.25;4934723;28;45490;-78
2021/10/07 11:08:12;;;;;;;;;6.00;5.00;;;;;18.82;61.76;102452.06;4944353;28;45510;-78
2021/10/07 11:10:38;;;;;;;;;2.33;2.00;;;;;18.94;60.55;102456.53;4929611;28;47377;-77
2021/10/07 11:13:04;;;;;;;;;3.00;3.00;;;;;19.00;61.35;102446.72;4933606;28;45339;-80
2021/10/07 11:15:29;;;;;;;;;3.00;2.00;;;;;19.11;60.77;102450.31;4933607;28;53641;-79
2021/10/07 11:17:55;;;;;;;;;1.00;1.00;;;;;19.21;61.20;102451.22;4926903;28;45373;-78
2021/10/07 11:20:27;;;;;;;;;3.67;2.00;;;;;19.26;60.44;102451.25;4931931;28;47742;-79
2021/10/07 11:22:57;;;;;;;;;2.00;2.00;;;;;19.28;60.54;102455.72;4926880;28;45532;-78
2021/10/07 11:25:22;;;;;;;;;3.00;2.00;;;;;19.31;60.44;102449.47;4930729;28;45450;-80